createdAt,value
2019-02-19T00:00:43.050Z,50.70
2019-02-19T00:03:10.794Z,51.00
2019-02-19T00:05:38.447Z,50.20
2019-02-19T00:08:06.132Z,50.30
2019-02-19T00:10:33.804Z,49.80
2019-02-19T00:13:01.823Z,49.80
2019-02-19T00:15:29.482Z,49.60
2019-02-19T00:17:57.120Z,49.20
2019-02-19T00:20:24.782Z,49.40
2019-02-19T00:22:52.480Z,49.30
2019-02-19T00:25:20.173Z,49.30
2019-02-19T00:27:47.817Z,49.20
2019-02-19T00:30:15.500Z,50.20
2019-02-19T00:32:43.149Z,49.70
2019-02-19T00:35:10.780Z,49.30
2019-02-19T00:37:38.472Z,49.10
2019-02-19T00:40:06.367Z,49.70
2019-02-19T00:42:34.181Z,49.10
2019-02-19T00:45:01.819Z,49.40
2019-02-19T00:47:29.676Z,49.00
2019-02-19T00:49:57.263Z,49.70
2019-02-19T00:52:24.804Z,50.00
2019-02-19T00:54:52.590Z,50.00
2019-02-19T00:57:20.255Z,50.50
2019-02-19T00:59:47.964Z,49.90
2019-02-19T01:02:15.636Z,50.30
2019-02-19T01:04:43.296Z,50.40
2019-02-19T01:07:10.972Z,50.60
2019-02-19T01:09:39.663Z,49.80
2019-02-19T01:12:07.460Z,49.10
2019-02-19T01:14:35.085Z,49.10
2019-02-19T01:17:02.760Z,49.30
2019-02-19T01:19:30.369Z,49.60
2019-02-19T01:21:58.048Z,49.80
2019-02-19T01:24:25.654Z,50.20
2019-02-19T01:26:53.369Z,50.80
2019-02-19T01:29:20.893Z,50.40
2019-02-19T01:31:48.548Z,50.60
2019-02-19T01:34:16.205Z,50.90
2019-02-19T01:36:43.867Z,51.50
2019-02-19T01:39:11.519Z,52.90
2019-02-19T01:41:39.181Z,52.30
2019-02-19T01:44:06.855Z,52.70
2019-02-19T01:46:34.496Z,52.70
2019-02-19T01:49:02.500Z,52.10
2019-02-19T01:51:30.111Z,52.40
2019-02-19T01:53:57.759Z,52.30
2019-02-19T01:56:25.396Z,53.80
2019-02-19T01:58:53.032Z,53.50
2019-02-19T02:01:20.694Z,54.90
2019-02-19T02:03:48.335Z,54.70
2019-02-19T02:06:15.984Z,54.80
2019-02-19T02:08:43.597Z,55.60
2019-02-19T02:11:11.232Z,55.20
2019-02-19T02:13:39.177Z,55.60
2019-02-19T02:16:07.033Z,54.70
2019-02-19T02:18:34.795Z,54.70
2019-02-19T02:21:02.547Z,54.10
2019-02-19T02:23:31.239Z,54.50
2019-02-19T02:25:58.917Z,53.90
2019-02-19T02:28:26.558Z,54.30
2019-02-19T02:30:54.221Z,54.10
2019-02-19T02:33:21.921Z,54.10
2019-02-19T02:35:49.590Z,54.20
2019-02-19T02:38:17.273Z,53.80
2019-02-19T02:40:44.864Z,54.20
2019-02-19T02:43:12.513Z,55.50
2019-02-19T02:45:40.156Z,54.30
2019-02-19T02:48:07.804Z,54.40
2019-02-19T02:50:35.459Z,54.40
2019-02-19T02:53:03.211Z,54.00
2019-02-19T02:55:30.875Z,53.70
2019-02-19T02:57:58.615Z,53.10
2019-02-19T03:00:26.236Z,52.90
2019-02-19T03:02:53.874Z,53.10
2019-02-19T03:05:21.509Z,52.80
2019-02-19T03:07:52.163Z,52.20
2019-02-19T03:10:19.830Z,52.40
2019-02-19T03:12:47.526Z,51.80
2019-02-19T03:15:15.618Z,51.70
2019-02-19T03:17:43.245Z,51.80
2019-02-19T03:20:10.881Z,51.30
2019-02-19T03:22:38.569Z,51.50
2019-02-19T03:25:06.369Z,51.00
2019-02-19T03:27:34.002Z,51.40
2019-02-19T03:30:01.621Z,51.20
2019-02-19T03:32:29.395Z,51.30
2019-02-19T03:34:57.055Z,51.10
2019-02-19T03:37:24.680Z,51.10
2019-02-19T03:39:52.340Z,51.40
2019-02-19T03:42:20.443Z,51.20
2019-02-19T03:44:48.100Z,51.10
2019-02-19T03:47:15.752Z,50.60
2019-02-19T03:49:43.385Z,51.20
2019-02-19T03:52:11.055Z,50.90
2019-02-19T03:54:38.709Z,50.40
2019-02-19T03:57:06.372Z,50.50
2019-02-19T03:59:34.161Z,51.20
2019-02-19T04:02:01.765Z,51.00
2019-02-19T04:04:29.372Z,51.40
2019-02-19T04:06:58.112Z,50.10
2019-02-19T04:09:25.796Z,50.60
2019-02-19T04:11:53.434Z,51.20
2019-02-19T04:14:21.044Z,51.20
2019-02-19T04:16:48.993Z,50.90
2019-02-19T04:19:16.782Z,50.70
2019-02-19T04:21:44.448Z,50.90
2019-02-19T04:24:12.095Z,51.10
2019-02-19T04:26:39.975Z,51.10
2019-02-19T04:29:07.593Z,51.00
2019-02-19T04:31:35.245Z,50.60
2019-02-19T04:34:02.909Z,50.70
2019-02-19T04:36:30.621Z,50.60
2019-02-19T04:38:58.411Z,51.10
2019-02-19T04:41:25.982Z,51.50
2019-02-19T04:43:53.598Z,51.40
2019-02-19T04:46:30.837Z,51.70
2019-02-19T04:48:50.847Z,51.90
2019-02-19T04:51:18.481Z,52.30
2019-02-19T04:53:46.133Z,52.60
2019-02-19T04:56:13.804Z,52.70
2019-02-19T04:58:41.591Z,52.70
2019-02-19T05:01:09.243Z,53.10
2019-02-19T05:03:36.904Z,53.80
2019-02-19T05:06:04.573Z,53.70
2019-02-19T05:08:32.316Z,53.50
2019-02-19T05:10:59.973Z,52.70
2019-02-19T05:13:27.745Z,52.70
2019-02-19T05:15:55.408Z,53.00
2019-02-19T05:18:23.140Z,52.90
2019-02-19T05:20:51.559Z,52.70
2019-02-19T05:23:20.302Z,53.10
2019-02-19T05:25:48.066Z,54.20
2019-02-19T05:28:15.691Z,54.60
2019-02-19T05:30:43.349Z,53.50
2019-02-19T05:33:10.978Z,54.10
2019-02-19T05:35:38.602Z,53.50
2019-02-19T05:38:06.232Z,53.50
2019-02-19T05:40:33.963Z,53.80
2019-02-19T05:43:01.663Z,54.30
2019-02-19T05:45:29.369Z,53.90
2019-02-19T05:47:57.042Z,54.20
2019-02-19T05:50:24.641Z,54.80
2019-02-19T05:52:52.371Z,53.20
2019-02-19T05:55:19.996Z,53.40
2019-02-19T05:57:47.672Z,53.60
2019-02-19T06:00:15.302Z,54.00
2019-02-19T06:02:42.933Z,54.30
2019-02-19T06:05:10.629Z,54.40
2019-02-19T06:07:38.285Z,53.70
2019-02-19T06:10:09.656Z,54.20
2019-02-19T06:12:37.294Z,54.50
2019-02-19T06:15:05.792Z,54.60
2019-02-19T06:17:33.472Z,54.40
2019-02-19T06:20:01.297Z,54.30
2019-02-19T06:22:28.972Z,55.30
2019-02-19T06:24:56.660Z,55.30
2019-02-19T06:27:24.301Z,54.30
2019-02-19T06:29:51.914Z,54.60
2019-02-19T06:32:19.614Z,54.60
2019-02-19T06:34:47.237Z,54.00
2019-02-19T06:37:14.867Z,54.50
2019-02-19T06:39:42.537Z,54.90
2019-02-19T06:42:10.165Z,54.80
2019-02-19T06:44:37.856Z,54.80
2019-02-19T06:47:07.110Z,55.00
2019-02-19T06:49:34.929Z,55.10
2019-02-19T06:52:02.643Z,55.60
2019-02-19T06:54:30.277Z,56.00
2019-02-19T06:56:58.080Z,55.60
2019-02-19T06:59:25.727Z,55.50
2019-02-19T07:02:15.939Z,55.80
2019-02-19T07:04:49.144Z,55.70
2019-02-19T07:07:16.807Z,55.70
2019-02-19T07:09:44.453Z,55.80
2019-02-19T07:12:12.104Z,55.60
2019-02-19T07:14:39.803Z,55.80
2019-02-19T07:17:15.274Z,55.30
2019-02-19T07:19:37.549Z,55.10
2019-02-19T07:22:05.287Z,55.40
2019-02-19T07:24:33.060Z,55.00
2019-02-19T07:27:00.682Z,55.70
2019-02-19T07:29:28.311Z,56.60
2019-02-19T07:31:55.968Z,55.80
2019-02-19T07:34:23.621Z,55.40
2019-02-19T07:36:51.246Z,55.10
2019-02-19T07:39:18.880Z,54.70
2019-02-19T07:41:46.508Z,55.20
2019-02-19T07:44:14.325Z,55.40
2019-02-19T07:46:41.944Z,55.00
2019-02-19T07:49:09.565Z,55.00
2019-02-19T07:51:37.240Z,54.90
2019-02-19T07:54:04.909Z,54.80
2019-02-19T07:56:32.735Z,54.40
2019-02-19T07:59:00.249Z,54.40
2019-02-19T08:01:28.992Z,54.40
2019-02-19T08:03:57.990Z,55.00
2019-02-19T08:06:25.523Z,54.60
2019-02-19T08:08:53.168Z,55.20
2019-02-19T08:11:21.978Z,55.70
2019-02-19T08:13:49.631Z,56.20
2019-02-19T08:16:18.953Z,55.30
2019-02-19T08:18:46.704Z,55.50
2019-02-19T08:21:14.373Z,55.40
2019-02-19T08:23:42.054Z,55.30
2019-02-19T08:26:09.683Z,55.60
2019-02-19T08:28:37.333Z,55.50
2019-02-19T08:31:04.999Z,55.50
2019-02-19T08:33:33.833Z,55.80
2019-02-19T08:36:01.579Z,55.70
2019-02-19T08:38:29.218Z,55.40
2019-02-19T08:40:56.894Z,55.50
2019-02-19T08:43:24.589Z,55.80
2019-02-19T08:45:52.216Z,55.10
2019-02-19T08:48:19.884Z,55.20
2019-02-19T08:50:47.498Z,55.70
2019-02-19T08:53:15.392Z,56.10
2019-02-19T08:55:43.125Z,56.90
2019-02-19T08:58:10.783Z,57.80
2019-02-19T09:00:38.610Z,58.20
2019-02-19T09:03:06.325Z,58.80
2019-02-19T09:05:34.013Z,57.20
2019-02-19T09:08:01.648Z,57.20
2019-02-19T09:10:29.299Z,55.90
2019-02-19T09:12:57.048Z,56.90
2019-02-19T09:15:24.722Z,57.30
2019-02-19T09:17:52.513Z,56.80
2019-02-19T09:20:20.229Z,56.50
2019-02-19T09:22:47.949Z,56.00
2019-02-19T09:25:15.684Z,56.50
2019-02-19T09:27:43.756Z,56.30
2019-02-19T09:30:11.496Z,56.40
2019-02-19T09:32:39.150Z,55.60
2019-02-19T09:35:06.897Z,55.40
2019-02-19T09:37:34.546Z,54.90
2019-02-19T09:40:02.697Z,54.20
2019-02-19T09:42:31.558Z,54.40
2019-02-19T09:44:59.202Z,54.00
2019-02-19T09:47:26.905Z,55.50
2019-02-19T09:49:54.537Z,55.50
2019-02-19T09:52:22.199Z,54.40
2019-02-19T09:54:49.987Z,55.50
2019-02-19T09:57:17.817Z,53.80
2019-02-19T09:59:45.455Z,53.30
2019-02-19T10:02:13.122Z,52.80
2019-02-19T10:04:40.850Z,52.20
2019-02-19T10:07:08.483Z,51.60
2019-02-19T10:09:36.130Z,49.90
2019-02-19T10:12:03.841Z,49.90
2019-02-19T10:14:31.500Z,49.50
2019-02-19T10:16:59.117Z,49.90
2019-02-19T10:19:26.821Z,49.70
2019-02-19T10:21:54.479Z,50.20
2019-02-19T10:24:22.168Z,50.30
2019-02-19T10:26:51.380Z,50.90
2019-02-19T10:29:19.103Z,50.70
2019-02-19T10:31:46.733Z,50.80
2019-02-19T10:34:15.574Z,50.00
2019-02-19T10:36:43.234Z,50.20
2019-02-19T10:39:11.572Z,49.80
2019-02-19T10:41:39.200Z,49.10
2019-02-19T10:44:06.832Z,49.50
2019-02-19T10:46:34.529Z,50.50
2019-02-19T10:49:02.385Z,49.30
2019-02-19T10:51:30.131Z,49.40
2019-02-19T10:53:57.847Z,49.40
2019-02-19T10:56:25.549Z,49.70
2019-02-19T10:58:53.268Z,49.90
2019-02-19T11:01:20.909Z,49.70
2019-02-19T11:03:48.518Z,49.70
2019-02-19T11:06:16.165Z,49.70
2019-02-19T11:08:43.768Z,49.30
2019-02-19T11:11:11.428Z,49.30
2019-02-19T11:13:39.108Z,49.20
2019-02-19T11:16:06.739Z,49.60
2019-02-19T11:18:34.368Z,49.60
2019-02-19T11:21:02.053Z,49.40
2019-02-19T11:23:29.779Z,49.90
2019-02-19T11:25:57.453Z,50.50
2019-02-19T11:28:25.068Z,50.20
2019-02-19T11:30:52.772Z,50.50
2019-02-19T11:33:20.417Z,51.10
2019-02-19T11:35:48.051Z,50.90
2019-02-19T11:38:15.743Z,51.40
2019-02-19T11:40:43.344Z,51.50
2019-02-19T11:43:10.980Z,51.50
2019-02-19T11:45:38.628Z,51.50
2019-02-19T11:48:06.268Z,51.40
2019-02-19T11:50:33.890Z,51.20
2019-02-19T11:53:01.912Z,51.60
2019-02-19T11:55:29.629Z,51.30
2019-02-19T11:57:57.376Z,51.20
2019-02-19T12:00:31.257Z,51.70
2019-02-19T12:02:59.070Z,51.80
2019-02-19T12:05:26.750Z,51.20
2019-02-19T12:07:54.404Z,51.50
2019-02-19T12:10:21.997Z,51.80
2019-02-19T12:12:49.680Z,51.40
2019-02-19T12:15:19.159Z,51.40
2019-02-19T12:17:46.910Z,50.90
2019-02-19T12:20:14.760Z,50.90
2019-02-19T12:22:42.419Z,51.00
2019-02-19T12:25:10.238Z,50.90
2019-02-19T12:27:38.015Z,50.40
2019-02-19T12:30:06.965Z,51.20
2019-02-19T12:32:34.685Z,51.20
2019-02-19T12:35:02.542Z,51.00
2019-02-19T12:37:30.148Z,51.20
2019-02-19T12:39:57.791Z,51.90
2019-02-19T12:42:25.452Z,51.50
2019-02-19T12:44:53.076Z,51.90
2019-02-19T12:47:20.759Z,52.10
2019-02-19T12:49:48.382Z,52.40
2019-02-19T12:52:16.002Z,51.80
2019-02-19T12:54:43.897Z,51.70
2019-02-19T12:57:11.566Z,51.70
2019-02-19T12:59:39.358Z,51.80
2019-02-19T13:02:06.970Z,51.80
2019-02-19T13:04:34.780Z,52.20
2019-02-19T13:07:02.441Z,52.40
2019-02-19T13:09:30.052Z,53.50
2019-02-19T13:11:57.749Z,53.20
2019-02-19T13:14:25.361Z,53.70
2019-02-19T13:16:53.013Z,54.10
2019-02-19T13:19:20.688Z,53.80
2019-02-19T13:21:48.485Z,53.80
2019-02-19T13:24:16.094Z,52.90
2019-02-19T13:26:43.764Z,53.50
2019-02-19T13:29:11.431Z,53.10
2019-02-19T13:31:39.058Z,52.60
2019-02-19T13:34:06.700Z,52.20
2019-02-19T13:36:34.396Z,52.60
2019-02-19T13:39:04.814Z,52.10
2019-02-19T13:41:34.341Z,51.80
2019-02-19T13:44:02.322Z,52.00
2019-02-19T13:46:31.036Z,51.70
2019-02-19T13:48:58.661Z,52.00
2019-02-19T13:51:26.313Z,51.50
2019-02-19T13:54:07.252Z,51.50
2019-02-19T13:56:34.909Z,51.00
2019-02-19T13:59:02.561Z,51.20
2019-02-19T14:01:30.505Z,51.40
2019-02-19T14:03:58.041Z,52.40
2019-02-19T14:06:25.700Z,51.10
2019-02-19T14:08:53.323Z,51.30
2019-02-19T14:11:20.999Z,51.20
2019-02-19T14:14:17.180Z,51.10
2019-02-19T14:16:52.146Z,51.80
2019-02-19T14:19:54.516Z,51.00
2019-02-19T14:22:47.661Z,50.50
2019-02-19T14:25:31.276Z,51.00
2019-02-19T14:28:16.736Z,50.90
2019-02-19T14:31:02.323Z,51.40
2019-02-19T14:33:49.237Z,51.40
2019-02-19T14:36:34.980Z,52.00
2019-02-19T14:39:11.386Z,51.60
2019-02-19T14:41:56.814Z,51.70
2019-02-19T14:44:47.170Z,51.10
2019-02-19T14:47:40.329Z,50.80
2019-02-19T14:50:22.279Z,50.70
2019-02-19T14:53:07.886Z,50.40
2019-02-19T14:55:53.584Z,49.90
2019-02-19T14:58:39.184Z,49.60
2019-02-19T15:01:34.451Z,49.50
2019-02-19T15:04:15.090Z,48.70
2019-02-19T15:07:00.635Z,49.10
2019-02-19T15:09:47.829Z,48.00
2019-02-19T15:12:33.403Z,48.80
2019-02-19T15:15:27.343Z,49.10
2019-02-19T15:18:13.112Z,49.00
2019-02-19T15:21:18.300Z,49.50
2019-02-19T15:24:20.068Z,49.30
2019-02-19T15:27:09.172Z,49.60
2019-02-19T15:29:56.347Z,49.90
2019-02-19T15:32:49.337Z,49.60
2019-02-19T15:35:36.100Z,50.50
2019-02-19T15:38:14.734Z,49.70
2019-02-19T15:41:07.746Z,50.00
2019-02-19T15:43:40.704Z,49.80
2019-02-19T15:46:26.421Z,50.40
2019-02-19T15:49:13.579Z,50.10
2019-02-19T15:51:59.514Z,50.40
2019-02-19T15:54:46.627Z,50.20
2019-02-19T15:57:36.366Z,50.40
2019-02-19T16:00:35.905Z,50.30
2019-02-19T16:03:08.532Z,50.10
2019-02-19T16:05:58.676Z,49.50
2019-02-19T16:08:47.486Z,49.70
2019-02-19T16:11:25.352Z,49.80
2019-02-19T16:14:16.709Z,50.10
2019-02-19T16:17:02.476Z,50.10
2019-02-19T16:19:56.598Z,49.70
2019-02-19T16:22:27.970Z,49.80
2019-02-19T16:25:07.306Z,50.40
2019-02-19T16:27:54.499Z,50.50
2019-02-19T16:30:40.404Z,50.80
2019-02-19T16:33:45.477Z,51.50
2019-02-19T16:36:47.773Z,51.60
2019-02-19T16:39:49.779Z,52.00
2019-02-19T16:42:27.528Z,52.40
2019-02-19T16:45:26.893Z,52.70
2019-02-19T16:48:06.938Z,52.90
2019-02-19T16:50:52.800Z,53.10
2019-02-19T16:53:45.744Z,53.10
2019-02-19T16:56:47.568Z,53.20
2019-02-19T16:59:22.604Z,52.90
2019-02-19T17:02:10.531Z,53.00
2019-02-19T17:04:57.750Z,53.50
2019-02-19T17:07:36.189Z,53.50
2019-02-19T17:10:31.578Z,53.50
2019-02-19T17:13:18.752Z,53.30
2019-02-19T17:16:04.361Z,53.90
2019-02-19T17:19:00.713Z,54.20
2019-02-19T17:21:39.680Z,54.10
2019-02-19T17:24:23.705Z,54.40
2019-02-19T17:27:09.447Z,55.60
2019-02-19T17:29:46.559Z,55.00
2019-02-19T17:32:45.916Z,56.20
2019-02-19T17:35:40.753Z,56.90
2019-02-19T17:38:19.858Z,56.50
2019-02-19T17:40:53.709Z,57.00
2019-02-19T17:43:41.712Z,57.10
2019-02-19T17:46:15.119Z,57.20
2019-02-19T17:49:03.372Z,57.50
2019-02-19T17:51:43.530Z,58.20
2019-02-19T17:54:45.883Z,58.20
2019-02-19T17:57:22.855Z,58.50
2019-02-19T18:00:23.023Z,59.10
2019-02-19T18:03:22.268Z,57.20
2019-02-19T18:06:15.516Z,57.10
2019-02-19T18:09:02.675Z,57.00
2019-02-19T18:12:00.745Z,56.90
2019-02-19T18:14:55.117Z,56.70
2019-02-19T18:17:27.167Z,57.60
2019-02-19T18:19:54.842Z,58.20
2019-02-19T18:22:22.685Z,57.90
2019-02-19T18:24:50.353Z,58.00
2019-02-19T18:27:18.028Z,58.70
2019-02-19T18:29:45.691Z,59.50
2019-02-19T18:32:13.682Z,59.90
2019-02-19T18:34:41.367Z,60.20
2019-02-19T18:37:09.011Z,60.00
2019-02-19T18:39:36.817Z,59.90
2019-02-19T18:42:04.467Z,59.80
2019-02-19T18:44:32.111Z,59.50
2019-02-19T18:46:59.791Z,60.00
2019-02-19T18:49:27.897Z,59.90
2019-02-19T18:51:55.553Z,59.30
2019-02-19T18:54:23.243Z,58.40
2019-02-19T18:56:51.043Z,57.60
2019-02-19T18:59:18.786Z,58.50
2019-02-19T19:01:46.585Z,58.10
2019-02-19T19:04:14.293Z,58.40
2019-02-19T19:06:42.007Z,59.80
2019-02-19T19:09:09.932Z,59.30
2019-02-19T19:11:39.639Z,59.50
2019-02-19T19:14:07.557Z,60.90
2019-02-19T19:16:36.642Z,61.30
2019-02-19T19:19:04.410Z,61.40
2019-02-19T19:21:32.192Z,60.40
2019-02-19T19:23:59.985Z,60.10
2019-02-19T19:26:28.055Z,60.50
2019-02-19T19:28:55.813Z,60.40
2019-02-19T19:31:23.433Z,60.90
2019-02-19T19:33:51.133Z,61.10
2019-02-19T19:36:19.001Z,60.70
2019-02-19T19:38:47.179Z,60.40
2019-02-19T19:41:14.849Z,59.70
2019-02-19T19:43:43.828Z,59.50
2019-02-19T19:46:13.561Z,58.60
2019-02-19T19:48:43.357Z,58.30
2019-02-19T19:51:17.250Z,58.00
2019-02-19T19:53:40.880Z,57.80
2019-02-19T19:56:10.135Z,57.60
2019-02-19T19:58:37.923Z,56.80
2019-02-19T20:01:08.330Z,56.40
2019-02-19T20:03:36.260Z,56.20
2019-02-19T20:06:04.723Z,56.20
2019-02-19T20:08:32.470Z,56.00
2019-02-19T20:11:01.008Z,55.50
2019-02-19T20:13:29.314Z,56.20
2019-02-19T20:15:57.081Z,56.80
2019-02-19T20:18:26.657Z,56.10
2019-02-19T20:20:54.397Z,56.50
2019-02-19T20:23:22.573Z,56.80
2019-02-19T20:25:50.525Z,56.40
2019-02-19T20:28:18.332Z,58.30
2019-02-19T20:30:47.744Z,57.10
2019-02-19T20:33:15.690Z,57.60
2019-02-19T20:35:44.704Z,57.10
2019-02-19T20:38:13.946Z,56.80
2019-02-19T20:40:42.943Z,57.20
2019-02-19T20:43:10.838Z,57.40
2019-02-19T20:45:38.649Z,57.20
2019-02-19T20:48:06.330Z,57.10
2019-02-19T20:50:33.997Z,56.70
2019-02-19T20:53:01.941Z,56.80
2019-02-19T20:55:36.845Z,56.80
2019-02-19T20:58:01.476Z,56.80
2019-02-19T21:00:29.297Z,56.30
2019-02-19T21:02:57.118Z,56.60
2019-02-19T21:05:25.320Z,56.80
2019-02-19T21:07:53.393Z,57.00
2019-02-19T21:10:21.203Z,56.90
2019-02-19T21:12:48.984Z,57.00
2019-02-19T21:15:17.121Z,56.80
2019-02-19T21:17:44.885Z,57.20
2019-02-19T21:20:13.512Z,57.70
2019-02-19T21:22:41.632Z,57.30
2019-02-19T21:25:09.719Z,57.60
2019-02-19T21:27:37.518Z,57.50
2019-02-19T21:30:05.641Z,57.80
2019-02-19T21:32:35.266Z,58.40
2019-02-19T21:35:03.207Z,58.20
2019-02-19T21:37:35.043Z,58.70
2019-02-19T21:40:04.658Z,58.90
2019-02-19T21:42:34.285Z,58.80
2019-02-19T21:45:02.004Z,59.80
2019-02-19T21:47:31.617Z,59.20
2019-02-19T21:49:59.369Z,59.50
2019-02-19T21:52:28.295Z,59.80
2019-02-19T21:54:56.042Z,60.20
2019-02-19T21:57:23.819Z,60.60
2019-02-19T21:59:51.577Z,59.90
2019-02-19T22:02:19.414Z,60.30
2019-02-19T22:04:47.140Z,60.00
2019-02-19T22:07:14.960Z,61.20
2019-02-19T22:09:42.758Z,60.60
2019-02-19T22:12:10.529Z,60.90
2019-02-19T22:14:38.193Z,61.40
2019-02-19T22:17:06.210Z,61.60
2019-02-19T22:19:34.301Z,61.50
2019-02-19T22:22:08.783Z,61.00
2019-02-19T22:24:37.432Z,60.80
2019-02-19T22:27:08.136Z,61.60
2019-02-19T22:29:35.931Z,61.50
2019-02-19T22:32:04.080Z,61.80
2019-02-19T22:34:31.712Z,62.20
2019-02-19T22:36:59.343Z,62.00
2019-02-19T22:39:27.117Z,62.00
2019-02-19T22:41:54.751Z,61.40
2019-02-19T22:44:22.354Z,60.90
2019-02-19T22:46:49.996Z,60.70
2019-02-19T22:49:17.663Z,61.50
2019-02-19T22:51:45.748Z,60.70
2019-02-19T22:54:34.111Z,60.10
2019-02-19T22:57:01.788Z,59.50
2019-02-19T22:59:29.446Z,59.20
2019-02-19T23:02:15.268Z,59.30
2019-02-19T23:04:43.009Z,58.80
2019-02-19T23:07:10.683Z,58.90
2019-02-19T23:09:38.540Z,58.30
2019-02-19T23:12:06.290Z,57.10
2019-02-19T23:14:33.948Z,56.30
2019-02-19T23:17:01.685Z,56.20
2019-02-19T23:19:29.585Z,57.20
2019-02-19T23:21:57.294Z,58.10
2019-02-19T23:24:24.934Z,59.30
2019-02-19T23:26:52.706Z,58.60
2019-02-19T23:29:20.481Z,58.20
2019-02-19T23:31:48.222Z,58.10
2019-02-19T23:34:15.809Z,58.20
2019-02-19T23:36:55.041Z,58.90
2019-02-19T23:39:22.772Z,58.50
2019-02-19T23:41:50.455Z,58.30
2019-02-19T23:44:18.098Z,58.20
2019-02-19T23:46:45.862Z,58.20
2019-02-19T23:49:13.501Z,58.60
2019-02-19T23:51:41.322Z,58.70
2019-02-19T23:54:09.161Z,58.60
2019-02-19T23:56:36.889Z,57.80
2019-02-19T23:59:04.556Z,58.40
